Time;durP1;ratioP1;P1;durP2;ratioP2;P2;SDS_P1;SDS_P2;PMS_P1;PMS_P2;Temp;Humidity;BMP_temperature;BMP_pressure;BME280_temperature;BME280_humidity;BME280_pressure;Samples;Min_cycle;Max_cycle;Signal;HPM_P1;HPM_P2
2022/05/13 14:54:14;;;;;;;7.37;4.00;;;;;;;;;;5803120;22;20896;-65
2022/05/13 14:56:46;;;;;;;7.73;4.27;;;;;;;;;;5086758;28;21020;-62
2022/05/13 14:59:16;;;;;;;4.60;4.17;;;;;;;;;;5112703;28;20429;-63
2022/05/13 15:01:43;;;;;;;16.13;4.57;;;;;;;;;;5103080;28;20424;-64
2022/05/13 15:04:14;;;;;;;5.10;4.67;;;;;;;;;;5107968;28;20435;-64
2022/05/13 15:06:44;;;;;;;5.17;4.80;;;;;;;;;;5108601;28;20423;-64
2022/05/13 15:09:21;;;;;;;5.50;4.27;;;;;;;;;;5112330;28;20475;-64
2022/05/13 15:11:48;;;;;;;10.10;4.30;;;;;;;;;;5111048;28;20454;-64
2022/05/13 15:14:14;;;;;;;5.10;4.63;;;;;;;;;;5094188;28;20777;-64
2022/05/13 15:16:40;;;;;;;4.30;3.90;;;;;;;;;;5110399;28;20485;-65
2022/05/13 15:19:06;;;;;;;7.93;4.17;;;;;;;;;;5112576;28;20419;-64
2022/05/13 15:21:32;;;;;;;8.57;4.97;;;;;;;;;;5112746;28;20435;-64
2022/05/13 15:23:58;;;;;;;7.23;4.23;;;;;;;;;;5112477;28;20501;-65
2022/05/13 15:26:26;;;;;;;5.07;4.37;;;;;;;;;;5112556;28;20547;-64
2022/05/13 15:28:52;;;;;;;10.27;4.40;;;;;;;;;;5112127;28;20418;-64
2022/05/13 15:31:18;;;;;;;6.50;3.97;;;;;;;;;;5112591;28;20467;-64
2022/05/13 15:33:44;;;;;;;10.63;5.43;;;;;;;;;;5112438;28;20412;-66
2022/05/13 15:36:18;;;;;;;8.10;4.50;;;;;;;;;;5112263;28;20461;-64
2022/05/13 15:38:44;;;;;;;8.90;4.60;;;;;;;;;;5112471;28;20414;-64
2022/05/13 15:41:11;;;;;;;7.90;4.43;;;;;;;;;;5112286;28;20766;-65
2022/05/13 15:43:37;;;;;;;4.50;4.07;;;;;;;;;;5112782;28;20472;-67
2022/05/13 15:46:03;;;;;;;6.90;4.10;;;;;;;;;;5093755;28;20424;-65
2022/05/13 15:48:29;;;;;;;6.57;4.47;;;;;;;;;;5112210;28;20801;-66
2022/05/13 15:53:39;;;;;;;7.60;4.87;;;;;;;;;;5111831;28;20449;-66
2022/05/13 15:56:08;;;;;;;13.87;4.77;;;;;;;;;;5111891;28;20867;-67
2022/05/13 15:58:39;;;;;;;3.70;3.40;;;;;;;;;;5111859;28;20498;-67
2022/05/13 16:01:06;;;;;;;5.33;4.07;;;;;;;;;;5111941;28;20438;-66
2022/05/13 16:03:32;;;;;;;5.87;4.10;;;;;;;;;;5109743;28;20416;-69
2022/05/13 16:05:59;;;;;;;5.53;3.80;;;;;;;;;;5111515;28;20413;-66
2022/05/13 16:08:25;;;;;;;6.80;3.57;;;;;;;;;;5111191;28;20503;-65
2022/05/13 16:10:53;;;;;;;8.53;4.40;;;;;;;;;;5108867;28;20509;-66
2022/05/13 16:13:24;;;;;;;8.93;4.17;;;;;;;;;;5111455;28;20408;-67
2022/05/13 16:15:53;;;;;;;4.37;3.97;;;;;;;;;;5111502;28;20477;-66
2022/05/13 16:18:22;;;;;;;10.77;4.93;;;;;;;;;;5111050;28;20419;-68
2022/05/13 16:20:49;;;;;;;4.93;3.70;;;;;;;;;;5093103;28;20813;-66
2022/05/13 16:23:17;;;;;;;3.93;3.63;;;;;;;;;;5111460;28;20461;-64
2022/05/13 16:25:43;;;;;;;11.73;4.07;;;;;;;;;;5108823;28;20422;-65
2022/05/13 16:28:10;;;;;;;12.07;4.30;;;;;;;;;;5111308;28;20416;-65
2022/05/13 16:30:36;;;;;;;4.10;3.77;;;;;;;;;;5111406;28;20447;-68
2022/05/13 16:33:02;;;;;;;5.40;3.80;;;;;;;;;;5093140;28;20758;-67
2022/05/13 16:35:30;;;;;;;4.30;3.90;;;;;;;;;;5111372;28;21063;-68
2022/05/13 16:37:56;;;;;;;4.13;3.63;;;;;;;;;;5110824;28;20410;-67
2022/05/13 16:40:25;;;;;;;5.20;3.90;;;;;;;;;;5111003;28;20476;-65
2022/05/13 16:42:51;;;;;;;4.30;3.70;;;;;;;;;;5110963;28;20425;-66
2022/05/13 16:45:17;;;;;;;4.83;3.33;;;;;;;;;;5111082;28;20415;-67
2022/05/13 16:47:43;;;;;;;3.60;3.50;;;;;;;;;;5111425;28;20817;-70
2022/05/13 16:50:11;;;;;;;3.40;3.10;;;;;;;;;;5109043;28;20420;-67
2022/05/13 16:52:37;;;;;;;5.03;3.57;;;;;;;;;;5110876;28;20461;-65
2022/05/13 16:55:03;;;;;;;4.60;4.13;;;;;;;;;;5110894;28;20543;-64
2022/05/13 16:57:30;;;;;;;10.57;4.10;;;;;;;;;;5109104;28;20423;-67
2022/05/13 16:59:56;;;;;;;5.63;3.80;;;;;;;;;;5109169;28;20427;-66
2022/05/13 17:02:22;;;;;;;6.30;4.30;;;;;;;;;;5111135;28;20443;-67
2022/05/13 17:04:48;;;;;;;5.53;5.03;;;;;;;;;;5111187;28;20641;-69
2022/05/13 17:07:14;;;;;;;23.13;4.57;;;;;;;;;;5110992;28;20771;-66
2022/05/13 17:17:56;;;;;;;4.30;3.63;;;;;;;;;;5110972;28;20940;-65
2022/05/13 17:20:22;;;;;;;6.60;3.80;;;;;;;;;;5111264;28;20499;-66
2022/05/13 17:22:48;;;;;;;3.97;3.67;;;;;;;;;;5110915;28;20923;-66
2022/05/13 17:25:14;;;;;;;4.87;4.43;;;;;;;;;;5090456;28;20530;-67
2022/05/13 17:27:57;;;;;;;7.53;4.03;;;;;;;;;;5110603;28;20939;-66
2022/05/13 17:30:26;;;;;;;5.47;3.50;;;;;;;;;;5110351;28;20500;-65
2022/05/13 17:32:53;;;;;;;3.97;3.50;;;;;;;;;;5110746;28;20779;-65
2022/05/13 17:35:23;;;;;;;4.30;3.90;;;;;;;;;;5110992;28;20468;-66
2022/05/13 17:37:50;;;;;;;5.87;3.90;;;;;;;;;;5111742;28;20416;-68
2022/05/13 17:40:19;;;;;;;5.33;4.03;;;;;;;;;;5114817;28;20976;-70
2022/05/13 17:42:46;;;;;;;5.03;4.53;;;;;;;;;;5114263;28;20541;-69
2022/05/13 17:45:13;;;;;;;6.27;4.50;;;;;;;;;;5112584;28;20428;-65
2022/05/13 17:47:39;;;;;;;10.13;3.57;;;;;;;;;;5114175;28;21095;-68
2022/05/13 17:50:05;;;;;;;5.70;5.20;;;;;;;;;;5114328;28;20410;-68
2022/05/13 17:52:32;;;;;;;4.57;4.07;;;;;;;;;;5114606;28;20877;-68
2022/05/13 17:54:58;;;;;;;4.97;4.53;;;;;;;;;;5114046;28;20861;-68
2022/05/13 17:57:24;;;;;;;6.30;5.70;;;;;;;;;;5111949;28;20974;-65
2022/05/13 17:59:50;;;;;;;5.30;4.80;;;;;;;;;;5114300;28;20416;-66
2022/05/13 18:02:16;;;;;;;4.97;4.10;;;;;;;;;;5111741;28;20423;-64
2022/05/13 18:04:42;;;;;;;8.33;5.20;;;;;;;;;;5109881;28;20420;-64
2022/05/13 18:07:08;;;;;;;5.20;4.73;;;;;;;;;;5113968;28;20414;-65
2022/05/13 18:09:34;;;;;;;5.13;4.70;;;;;;;;;;5114204;28;20418;-68
2022/05/13 18:12:00;;;;;;;6.53;5.00;;;;;;;;;;5113697;28;20415;-66
2022/05/13 18:14:26;;;;;;;5.53;4.83;;;;;;;;;;5113914;28;20599;-68
2022/05/13 18:16:52;;;;;;;10.23;5.53;;;;;;;;;;5111667;28;20951;-64
2022/05/13 18:19:18;;;;;;;10.93;4.47;;;;;;;;;;5111573;28;20403;-63
2022/05/13 18:21:44;;;;;;;5.37;4.30;;;;;;;;;;5113602;28;20411;-65
2022/05/13 18:24:10;;;;;;;4.83;4.40;;;;;;;;;;5095468;28;20762;-67
2022/05/13 18:26:38;;;;;;;5.90;4.80;;;;;;;;;;5113704;28;20431;-65
2022/05/13 18:29:04;;;;;;;4.87;4.37;;;;;;;;;;5111940;28;20413;-65
2022/05/13 18:31:30;;;;;;;5.30;4.80;;;;;;;;;;5111554;28;20422;-64
2022/05/13 18:33:56;;;;;;;4.97;4.47;;;;;;;;;;5113567;28;20777;-64
2022/05/13 18:36:24;;;;;;;5.53;5.03;;;;;;;;;;5113706;28;20470;-68
2022/05/13 18:38:50;;;;;;;5.60;5.10;;;;;;;;;;5111883;28;20407;-63
2022/05/13 18:46:46;;;;;;;5.07;4.60;;;;;;;;;;5112426;28;20817;-65
2022/05/13 18:49:14;;;;;;;8.87;5.37;;;;;;;;;;5112203;28;20933;-65
2022/05/13 18:51:41;;;;;;;5.00;4.60;;;;;;;;;;5113215;28;20401;-68
2022/05/13 18:54:07;;;;;;;6.00;4.80;;;;;;;;;;5113302;28;20915;-69
2022/05/13 18:56:35;;;;;;;6.73;5.00;;;;;;;;;;5094735;28;20926;-68
2022/05/13 18:59:01;;;;;;;7.50;5.53;;;;;;;;;;5112795;28;20511;-65
2022/05/13 19:01:27;;;;;;;7.30;5.67;;;;;;;;;;5112877;28;20420;-64
2022/05/13 19:03:53;;;;;;;5.80;5.40;;;;;;;;;;5095017;28;20429;-65
2022/05/13 19:06:20;;;;;;;6.63;5.97;;;;;;;;;;5112960;28;20418;-64
2022/05/13 19:08:46;;;;;;;6.43;4.77;;;;;;;;;;5113042;28;20460;-66
2022/05/13 19:11:13;;;;;;;5.30;4.80;;;;;;;;;;5109743;28;20517;-66
2022/05/13 19:13:41;;;;;;;6.70;5.83;;;;;;;;;;5100777;28;20800;-68
2022/05/13 19:16:08;;;;;;;5.90;5.40;;;;;;;;;;5110927;28;20983;-67
2022/05/13 19:18:35;;;;;;;7.97;5.33;;;;;;;;;;5112093;28;20406;-68
2022/05/13 19:21:02;;;;;;;5.30;4.90;;;;;;;;;;5112507;28;20419;-65
2022/05/13 19:23:28;;;;;;;10.30;5.73;;;;;;;;;;5112904;28;20408;-68
2022/05/13 19:25:58;;;;;;;6.70;6.00;;;;;;;;;;5114008;28;20421;-68
2022/05/13 19:28:25;;;;;;;6.10;5.60;;;;;;;;;;5114235;28;20774;-68
2022/05/13 19:30:51;;;;;;;8.20;6.23;;;;;;;;;;5113460;28;20421;-65
2022/05/13 19:33:17;;;;;;;7.73;5.73;;;;;;;;;;5114174;28;20767;-67
2022/05/13 19:35:44;;;;;;;12.40;5.50;;;;;;;;;;5105515;28;20456;-68
2022/05/13 19:38:10;;;;;;;8.40;5.60;;;;;;;;;;5113840;28;20480;-68
2022/05/13 19:40:37;;;;;;;6.67;5.40;;;;;;;;;;5114110;28;21086;-68
2022/05/13 19:43:03;;;;;;;5.83;5.20;;;;;;;;;;5113432;28;20422;-68
2022/05/13 19:45:30;;;;;;;5.70;5.10;;;;;;;;;;5107028;28;20481;-65
2022/05/13 19:47:56;;;;;;;7.60;5.70;;;;;;;;;;5110313;28;20907;-68
2022/05/13 19:50:23;;;;;;;5.47;5.17;;;;;;;;;;5112266;28;20401;-68
2022/05/13 19:52:49;;;;;;;9.13;5.13;;;;;;;;;;5111909;28;20416;-69
2022/05/13 19:55:16;;;;;;;5.33;5.00;;;;;;;;;;5106981;28;20488;-69
2022/05/13 19:57:42;;;;;;;6.57;6.00;;;;;;;;;;5100102;28;20408;-68
2022/05/13 20:00:10;;;;;;;8.97;5.60;;;;;;;;;;5111081;28;20419;-66
2022/05/13 20:02:36;;;;;;;6.23;5.63;;;;;;;;;;5109688;28;20468;-66
2022/05/13 20:10:41;;;;;;;10.00;5.80;;;;;;;;;;5113080;28;20422;-67
2022/05/13 20:13:07;;;;;;;9.90;6.10;;;;;;;;;;5113119;28;20421;-68
2022/05/13 20:15:33;;;;;;;5.50;5.03;;;;;;;;;;5113443;28;20461;-67
2022/05/13 20:17:59;;;;;;;5.40;5.00;;;;;;;;;;5112862;28;20455;-64
2022/05/13 20:23:10;;;;;;;11.43;5.47;;;;;;;;;;5112792;28;20791;-67
2022/05/13 20:25:36;;;;;;;5.70;5.40;;;;;;;;;;5113419;28;20417;-66
2022/05/13 20:28:03;;;;;;;6.60;6.07;;;;;;;;;;5094359;28;20427;-68
2022/05/13 20:30:29;;;;;;;10.10;5.47;;;;;;;;;;5113075;28;20918;-68
2022/05/13 20:32:55;;;;;;;9.90;5.73;;;;;;;;;;5112742;28;20413;-68
2022/05/13 20:35:21;;;;;;;6.47;5.43;;;;;;;;;;5112558;28;20464;-68
2022/05/13 20:37:47;;;;;;;7.93;5.40;;;;;;;;;;5112422;28;20421;-67
2022/05/13 20:40:15;;;;;;;5.40;5.00;;;;;;;;;;5111184;28;20415;-67
2022/05/13 20:42:41;;;;;;;5.70;5.20;;;;;;;;;;5096012;28;20410;-66
2022/05/13 20:45:07;;;;;;;5.23;4.70;;;;;;;;;;5098591;28;20404;-64
2022/05/13 20:47:33;;;;;;;8.67;5.23;;;;;;;;;;5109561;28;20458;-68
2022/05/13 20:49:59;;;;;;;6.10;5.43;;;;;;;;;;5111198;28;20416;-69
2022/05/13 20:52:25;;;;;;;8.17;5.33;;;;;;;;;;5111136;28;20417;-67
2022/05/13 20:54:51;;;;;;;10.10;5.93;;;;;;;;;;5110816;28;20918;-65
2022/05/13 20:57:17;;;;;;;7.40;6.80;;;;;;;;;;5111655;28;20418;-66
2022/05/13 20:59:47;;;;;;;12.30;6.90;;;;;;;;;;5092911;28;20447;-67
2022/05/13 21:02:13;;;;;;;10.20;6.33;;;;;;;;;;5111081;28;20452;-68
2022/05/13 21:04:52;;;;;;;14.00;6.63;;;;;;;;;;5111082;28;20440;-65
2022/05/13 21:07:20;;;;;;;19.50;7.13;;;;;;;;;;5111636;28;20418;-69
2022/05/13 21:09:46;;;;;;;6.97;6.30;;;;;;;;;;5109177;28;20420;-68
2022/05/13 21:12:13;;;;;;;7.00;6.27;;;;;;;;;;5114479;28;20918;-66
2022/05/13 21:14:39;;;;;;;7.03;6.50;;;;;;;;;;5110897;28;20479;-69
2022/05/13 21:17:05;;;;;;;6.50;6.00;;;;;;;;;;5115350;28;20427;-68
2022/05/13 21:19:31;;;;;;;9.10;6.20;;;;;;;;;;5115020;28;20420;-68
2022/05/13 21:21:57;;;;;;;6.30;5.73;;;;;;;;;;5115030;28;20415;-69
2022/05/13 21:24:23;;;;;;;10.80;6.70;;;;;;;;;;5116277;28;20418;-69
2022/05/13 21:26:49;;;;;;;7.00;6.40;;;;;;;;;;5117543;28;20885;-68
2022/05/13 21:29:15;;;;;;;8.90;6.90;;;;;;;;;;5117557;28;20414;-68
2022/05/13 21:37:10;;;;;;;13.03;6.97;;;;;;;;;;5117447;28;20787;-67
2022/05/13 21:39:36;;;;;;;10.37;6.30;;;;;;;;;;5117333;28;20407;-67
2022/05/13 21:42:02;;;;;;;6.40;5.90;;;;;;;;;;5117274;28;20407;-66
2022/05/13 21:44:28;;;;;;;19.10;7.33;;;;;;;;;;5117199;28;20786;-67
2022/05/13 21:46:54;;;;;;;7.37;6.63;;;;;;;;;;5117186;28;20429;-67
2022/05/13 21:49:20;;;;;;;12.40;7.20;;;;;;;;;;5117152;28;20399;-67
2022/05/13 21:54:33;;;;;;;8.80;6.40;;;;;;;;;;5117089;28;20536;-65
2022/05/13 21:56:59;;;;;;;7.17;6.60;;;;;;;;;;5116778;28;20586;-67
2022/05/13 21:59:25;;;;;;;6.47;6.07;;;;;;;;;;5116959;28;20938;-66
2022/05/13 22:01:52;;;;;;;11.70;6.30;;;;;;;;;;5116961;28;20407;-65
2022/05/13 22:04:18;;;;;;;10.90;6.87;;;;;;;;;;5117151;28;20394;-67
2022/05/13 22:06:45;;;;;;;7.07;6.43;;;;;;;;;;5117135;28;20401;-67
2022/05/13 22:09:12;;;;;;;7.50;6.20;;;;;;;;;;5116747;28;20474;-68
2022/05/13 22:11:38;;;;;;;8.00;6.47;;;;;;;;;;5116818;28;20773;-66
2022/05/13 22:14:06;;;;;;;14.10;7.00;;;;;;;;;;5116666;28;20501;-68
2022/05/13 22:16:32;;;;;;;10.40;6.57;;;;;;;;;;5116563;28;20507;-68
2022/05/13 22:18:58;;;;;;;6.53;6.23;;;;;;;;;;5116631;28;20420;-68
2022/05/13 22:21:25;;;;;;;8.50;6.60;;;;;;;;;;5116531;28;20414;-68
2022/05/13 22:23:51;;;;;;;6.80;6.20;;;;;;;;;;5115807;28;20451;-68
2022/05/13 22:26:17;;;;;;;7.00;6.30;;;;;;;;;;5116496;28;20417;-66
2022/05/13 22:28:44;;;;;;;7.03;6.40;;;;;;;;;;5116378;28;20402;-65
2022/05/13 22:31:10;;;;;;;10.80;7.20;;;;;;;;;;5116436;28;20781;-68
2022/05/13 22:33:36;;;;;;;7.33;6.07;;;;;;;;;;5116340;28;20398;-67
2022/05/13 22:36:02;;;;;;;9.03;7.13;;;;;;;;;;5097943;28;20473;-67
2022/05/13 22:38:28;;;;;;;8.60;7.23;;;;;;;;;;5097964;28;20436;-69
2022/05/13 22:40:55;;;;;;;8.80;6.53;;;;;;;;;;5116150;28;20426;-67
2022/05/13 22:43:24;;;;;;;7.13;6.63;;;;;;;;;;5116164;28;20911;-68
2022/05/13 22:45:50;;;;;;;9.33;6.77;;;;;;;;;;5116115;28;20404;-67
2022/05/13 22:48:17;;;;;;;14.43;7.10;;;;;;;;;;5116041;28;20800;-67
2022/05/13 22:50:44;;;;;;;9.43;7.10;;;;;;;;;;5116223;28;20405;-66
2022/05/13 22:53:10;;;;;;;16.80;6.50;;;;;;;;;;5115877;28;20475;-67
2022/05/13 22:55:36;;;;;;;13.30;7.77;;;;;;;;;;5115599;28;20473;-66
2022/05/13 22:58:03;;;;;;;9.37;7.07;;;;;;;;;;5115851;28;20492;-66
2022/05/13 23:00:29;;;;;;;7.23;6.67;;;;;;;;;;5115755;28;20452;-67
2022/05/13 23:02:55;;;;;;;7.40;6.67;;;;;;;;;;5115691;28;20397;-67
2022/05/13 23:05:21;;;;;;;7.90;7.30;;;;;;;;;;5115614;28;20406;-68
2022/05/13 23:13:16;;;;;;;7.30;6.80;;;;;;;;;;5115511;28;20404;-68
2022/05/13 23:15:42;;;;;;;8.40;6.70;;;;;;;;;;5115371;28;20491;-67
2022/05/13 23:18:08;;;;;;;7.43;6.87;;;;;;;;;;5097166;28;20474;-66
2022/05/13 23:20:34;;;;;;;8.47;7.17;;;;;;;;;;5097149;28;20441;-66
2022/05/13 23:23:00;;;;;;;18.13;7.80;;;;;;;;;;5115320;28;20406;-67
2022/05/13 23:25:26;;;;;;;12.10;6.87;;;;;;;;;;5115283;28;20503;-68
2022/05/13 23:27:53;;;;;;;7.13;6.50;;;;;;;;;;5115252;28;20404;-67
2022/05/13 23:30:19;;;;;;;11.70;6.83;;;;;;;;;;5115553;28;20406;-66
2022/05/13 23:32:45;;;;;;;16.13;7.60;;;;;;;;;;5115203;28;20496;-66
2022/05/13 23:35:11;;;;;;;7.50;6.80;;;;;;;;;;5114042;28;20575;-68
2022/05/13 23:37:37;;;;;;;7.73;7.03;;;;;;;;;;5115123;28;20407;-66
2022/05/13 23:40:03;;;;;;;10.47;7.10;;;;;;;;;;5114955;28;20902;-66
2022/05/13 23:42:29;;;;;;;7.10;6.60;;;;;;;;;;5114964;28;20408;-67
2022/05/13 23:44:55;;;;;;;11.00;7.07;;;;;;;;;;5096939;28;20409;-67
2022/05/13 23:47:21;;;;;;;7.90;7.17;;;;;;;;;;5114868;28;20408;-66
2022/05/13 23:49:48;;;;;;;11.80;7.23;;;;;;;;;;5114813;28;20741;-68
2022/05/13 23:55:58;;;;;;;10.67;8.10;;;;;;;;;;5115091;28;20458;-67
2022/05/13 23:57:49;;;;;;;7.50;6.90;;;;;;;;;;5114658;28;20458;-66
